Time;durP1;ratioP1;P1;durP2;ratioP2;P2;SDS_P1;SDS_P2;PMS_P1;PMS_P2;Temp;Humidity;BMP_temperature;BMP_pressure;BME280_temperature;BME280_humidity;BME280_pressure;Samples;Min_cycle;Max_cycle;Signal;HPM_P1;HPM_P2
2022/05/08 00:00:27;;;;;;;4.33;1.30;;;8.00;99.90;;;;;;6229090;22;20016;-92
2022/05/08 00:02:55;;;;;;;4.53;1.10;;;8.00;99.90;;;;;;6252103;22;20012;-92
2022/05/08 00:05:21;;;;;;;5.03;1.42;;;8.00;99.90;;;;;;6229216;22;20472;-91
2022/05/08 00:07:47;;;;;;;5.63;0.80;;;8.00;99.90;;;;;;6226570;22;20047;-91
2022/05/08 00:10:14;;;;;;;4.27;1.03;;;7.90;99.90;;;;;;6225622;22;20016;-91
2022/05/08 00:12:39;;;;;;;3.97;1.30;;;7.90;99.90;;;;;;6224943;22;20011;-91
2022/05/08 00:15:06;;;;;;;7.20;1.20;;;7.80;99.90;;;;;;6225090;22;20026;-93
2022/05/08 00:17:34;;;;;;;3.60;1.15;;;7.80;99.90;;;;;;6225395;22;20487;-93
2022/05/08 00:20:03;;;;;;;6.82;1.20;;;7.80;99.90;;;;;;6250584;22;20011;-91
2022/05/08 00:22:28;;;;;;;4.95;1.02;;;7.80;99.90;;;;;;6224965;22;20012;-93
2022/05/08 00:24:55;;;;;;;3.97;0.90;;;7.80;99.90;;;;;;6224937;22;20336;-95
2022/05/08 00:27:30;;;;;;;6.97;1.23;;;7.80;99.90;;;;;;6225306;22;20379;-93
2022/05/08 00:29:56;;;;;;;2.13;0.80;;;7.80;99.90;;;;;;6225191;22;20016;-91
2022/05/08 00:32:22;;;;;;;2.50;1.10;;;7.80;99.90;;;;;;6225046;22;20014;-93
2022/05/08 00:34:48;;;;;;;4.78;0.88;;;7.80;99.90;;;;;;6225210;22;20086;-92
2022/05/08 00:37:14;;;;;;;7.45;1.05;;;7.80;99.90;;;;;;6225060;22;20438;-91
2022/05/08 00:39:42;;;;;;;2.90;0.90;;;7.80;99.90;;;;;;6224864;22;20054;-93
2022/05/08 00:42:10;;;;;;;4.55;1.00;;;7.90;99.90;;;;;;6225472;22;20020;-91
2022/05/08 00:44:35;;;;;;;6.57;1.30;;;7.90;99.90;;;;;;6225302;22;20051;-92
2022/05/08 00:47:01;;;;;;;5.67;1.20;;;7.80;99.90;;;;;;6225007;22;20130;-91
2022/05/08 00:49:27;;;;;;;4.13;1.03;;;7.80;99.90;;;;;;6250332;22;20040;-92
2022/05/08 00:51:53;;;;;;;7.22;1.13;;;7.70;99.90;;;;;;6225373;22;20024;-92
2022/05/08 00:54:19;;;;;;;3.47;1.30;;;7.70;99.90;;;;;;6224993;22;20012;-91
2022/05/08 00:56:45;;;;;;;4.57;1.00;;;7.60;99.90;;;;;;6225088;22;20011;-92
2022/05/08 00:59:11;;;;;;;4.53;1.13;;;7.60;99.90;;;;;;6224806;22;20105;-93
2022/05/08 01:02:38;;;;;;;5.20;1.27;;;7.60;99.90;;;;;;6224777;22;20375;-92
2022/05/08 01:07:55;;;;;;;5.03;1.13;;;7.60;99.90;;;;;;6120745;23;20446;-93
2022/05/08 01:10:22;;;;;;;4.23;1.20;;;7.60;99.90;;;;;;6197305;23;20021;-93
2022/05/08 01:12:55;;;;;;;2.75;0.93;;;7.60;99.90;;;;;;6189840;23;20067;-93
2022/05/08 01:15:21;;;;;;;5.50;1.20;;;7.50;99.90;;;;;;6164916;23;20392;-94
2022/05/08 01:17:48;;;;;;;4.03;1.00;;;7.50;99.90;;;;;;6164632;23;20052;-94
2022/05/08 01:20:15;;;;;;;5.22;1.10;;;7.50;99.90;;;;;;6164309;23;20067;-91
2022/05/08 01:22:41;;;;;;;6.63;1.25;;;7.40;99.90;;;;;;6165164;23;20016;-93
2022/05/08 01:25:07;;;;;;;3.97;1.20;;;7.50;99.90;;;;;;6166743;23;20437;-92
2022/05/08 01:27:33;;;;;;;3.87;0.83;;;7.50;99.90;;;;;;6166760;23;20092;-93
2022/05/08 01:30:06;;;;;;;4.20;1.40;;;7.50;99.90;;;;;;6167158;23;20019;-94
2022/05/08 01:33:00;;;;;;;3.95;1.15;;;7.50;99.90;;;;;;6192170;23;20016;-91
2022/05/08 01:35:31;;;;;;;6.18;1.83;;;7.50;99.90;;;;;;6167066;23;20105;-92
2022/05/08 01:38:46;;;;;;;4.75;1.17;;;7.50;99.90;;;;;;6190752;23;20024;-92
2022/05/08 01:41:13;;;;;;;4.80;0.93;;;7.60;99.90;;;;;;6165873;23;20013;-92
2022/05/08 01:43:41;;;;;;;3.33;1.10;;;7.60;99.90;;;;;;6166849;23;20457;-94
2022/05/08 01:46:07;;;;;;;5.05;1.00;;;7.70;99.90;;;;;;6166466;23;20532;-90
2022/05/08 01:48:34;;;;;;;3.78;1.10;;;7.70;99.90;;;;;;6166461;23;20020;-95
2022/05/08 01:51:01;;;;;;;6.60;1.15;;;7.70;99.90;;;;;;6166830;23;20020;-91
2022/05/08 01:53:31;;;;;;;3.05;1.00;;;7.70;99.90;;;;;;6166080;23;20024;-91
2022/05/08 01:55:57;;;;;;;4.38;1.15;;;7.60;99.90;;;;;;6166451;23;20016;-92
2022/05/08 01:58:25;;;;;;;4.93;1.00;;;7.60;99.90;;;;;;6166376;23;20061;-92
2022/05/08 02:00:52;;;;;;;3.10;1.20;;;7.50;99.90;;;;;;6166046;23;20244;-91
2022/05/08 02:03:19;;;;;;;4.70;1.20;;;7.50;99.90;;;;;;6190921;23;20021;-93
2022/05/08 02:05:46;;;;;;;3.28;0.95;;;7.40;99.90;;;;;;6181835;22;20026;-91
2022/05/08 02:08:12;;;;;;;3.50;0.82;;;7.30;99.90;;;;;;6251865;22;20039;-89
2022/05/08 02:10:39;;;;;;;7.05;1.10;;;7.20;99.90;;;;;;6226272;22;20341;-92
2022/05/08 02:13:07;;;;;;;3.58;1.00;;;7.10;99.90;;;;;;6226197;22;20443;-93
2022/05/08 02:15:33;;;;;;;4.60;0.82;;;7.10;99.90;;;;;;6226113;22;20344;-93
2022/05/08 02:18:01;;;;;;;3.78;1.10;;;7.10;99.90;;;;;;6226290;22;20027;-93
2022/05/08 02:20:27;;;;;;;3.95;1.10;;;7.00;99.90;;;;;;6226216;22;20065;-92
2022/05/08 02:22:53;;;;;;;2.00;0.90;;;7.00;99.90;;;;;;6226264;22;20066;-93
2022/05/08 02:25:55;;;;;;;4.15;1.25;;;7.00;99.90;;;;;;6226002;22;20016;-93
2022/05/08 02:28:24;;;;;;;4.75;1.13;;;7.00;99.90;;;;;;6270695;22;20020;-91
2022/05/08 02:30:50;;;;;;;3.87;1.27;;;7.10;99.90;;;;;;6226198;22;20019;-90
2022/05/08 02:33:17;;;;;;;6.00;1.00;;;7.10;99.90;;;;;;6226071;22;20372;-89
2022/05/08 02:35:42;;;;;;;3.22;0.95;;;7.10;99.90;;;;;;6226208;22;20016;-90
2022/05/08 02:38:09;;;;;;;6.53;1.00;;;7.10;99.90;;;;;;6225698;22;20104;-89
2022/05/08 02:40:35;;;;;;;2.58;0.90;;;7.10;99.90;;;;;;6225902;22;20086;-89
2022/05/08 02:43:00;;;;;;;5.60;0.90;;;7.10;99.90;;;;;;6226420;22;20441;-92
2022/05/08 02:45:26;;;;;;;3.30;1.00;;;7.10;99.90;;;;;;6227342;22;20007;-91
2022/05/08 02:47:57;;;;;;;2.40;0.90;;;7.10;99.90;;;;;;6254841;22;20073;-91
2022/05/08 02:50:23;;;;;;;3.13;0.90;;;7.10;99.90;;;;;;6227178;22;20085;-92
2022/05/08 02:52:49;;;;;;;2.60;0.87;;;7.10;99.90;;;;;;6228083;22;20019;-91
2022/05/08 03:00:46;;;;;;;2.30;0.65;;;7.20;99.90;;;;;;6251070;22;20047;-92
2022/05/08 03:03:13;;;;;;;3.70;1.13;;;7.10;99.90;;;;;;6224998;22;20524;-90
2022/05/08 03:05:43;;;;;;;;;;;7.00;99.90;;;;;;6225971;22;20023;-94
2022/05/08 03:08:09;;;;;;;3.47;1.15;;;7.00;99.90;;;;;;6225789;22;19915;-92
2022/05/08 03:13:20;;;;;;;4.57;0.98;;;6.80;99.90;;;;;;6250944;22;20107;-91
2022/05/08 03:15:47;;;;;;;4.72;1.10;;;6.80;99.90;;;;;;6225866;22;20016;-92
2022/05/08 03:18:12;;;;;;;4.97;0.85;;;6.70;99.90;;;;;;6225922;22;20019;-92
2022/05/08 03:20:40;;;;;;;4.33;1.00;;;6.60;99.90;;;;;;6225835;22;20046;-92
2022/05/08 03:23:06;;;;;;;3.83;1.10;;;6.50;99.90;;;;;;6225781;22;20008;-92
2022/05/08 03:25:31;;;;;;;3.03;0.90;;;6.50;99.90;;;;;;6225715;22;20090;-92
2022/05/08 03:28:01;;;;;;;2.03;0.77;;;6.50;99.90;;;;;;6225541;22;20150;-92
2022/05/08 03:30:28;;;;;;;3.70;0.77;;;6.50;99.90;;;;;;6225273;22;20012;-91
2022/05/08 03:32:56;;;;;;;3.63;1.00;;;6.50;99.90;;;;;;6225210;22;20015;-92
2022/05/08 03:35:22;;;;;;;2.47;1.02;;;6.40;99.90;;;;;;6225263;22;20019;-91
2022/05/08 03:37:50;;;;;;;4.55;1.00;;;6.40;99.90;;;;;;6226302;22;20073;-91
2022/05/08 03:40:16;;;;;;;3.03;0.80;;;6.40;99.90;;;;;;6225221;22;20441;-91
2022/05/08 03:42:44;;;;;;;4.00;0.77;;;6.40;99.90;;;;;;6250822;22;20093;-92
2022/05/08 03:50:21;;;;;;;3.03;0.90;;;6.40;99.90;;;;;;6246779;23;20028;-92
2022/05/08 03:52:48;;;;;;;3.60;1.20;;;6.40;99.90;;;;;;6195287;23;20051;-90
2022/05/08 03:55:15;;;;;;;2.33;0.88;;;6.40;99.90;;;;;;6195097;23;20069;-91
2022/05/08 03:57:44;;;;;;;3.20;1.00;;;6.50;99.90;;;;;;6195209;23;20020;-92
2022/05/08 04:00:11;;;;;;;3.22;0.90;;;6.50;99.90;;;;;;6195227;23;20341;-92
2022/05/08 04:02:37;;;;;;;1.70;0.73;;;6.50;99.90;;;;;;6195287;23;20016;-90
2022/05/08 04:05:10;;;;;;;4.18;0.93;;;6.50;99.90;;;;;;6195027;23;20016;-91
2022/05/08 04:07:37;;;;;;;3.38;0.90;;;6.50;99.90;;;;;;6194968;23;20063;-91
2022/05/08 04:10:03;;;;;;;3.65;1.38;;;6.50;99.90;;;;;;6195147;23;20098;-91
2022/05/08 04:12:29;;;;;;;3.17;0.95;;;6.50;99.90;;;;;;6195107;23;20069;-91
2022/05/08 04:18:09;;;;;;;2.60;0.75;;;6.50;99.90;;;;;;6218998;23;20059;-92
2022/05/08 04:20:35;;;;;;;;;;;6.60;99.90;;;;;;6195313;23;20338;-92
2022/05/08 04:25:46;;;;;;;2.72;0.82;;;6.60;99.90;;;;;;6220058;23;20027;-92
2022/05/08 04:28:12;;;;;;;2.63;0.70;;;6.50;99.90;;;;;;6195281;23;20016;-91
2022/05/08 04:30:38;;;;;;;2.40;0.70;;;6.50;99.90;;;;;;6194955;23;20319;-91
2022/05/08 04:33:04;;;;;;;2.60;0.87;;;6.50;99.90;;;;;;6194697;23;20020;-91
2022/05/08 04:35:55;;;;;;;2.00;0.87;;;6.50;99.90;;;;;;6194876;23;20004;-91
2022/05/08 04:38:26;;;;;;;3.92;0.85;;;6.50;99.90;;;;;;6194101;23;20016;-91
2022/05/08 04:40:52;;;;;;;3.17;0.70;;;6.50;99.90;;;;;;6195159;23;20020;-91
2022/05/08 04:43:17;;;;;;;5.73;0.80;;;6.50;99.90;;;;;;6195184;23;20019;-91
2022/05/08 04:45:43;;;;;;;1.83;0.70;;;6.60;99.90;;;;;;6194785;23;20020;-92
2022/05/08 04:48:09;;;;;;;3.90;0.93;;;6.60;99.90;;;;;;6195097;23;20048;-92
2022/05/08 04:50:35;;;;;;;2.07;0.90;;;6.60;99.90;;;;;;6189741;23;20020;-93
2022/05/08 04:53:00;;;;;;;3.17;1.07;;;6.70;99.90;;;;;;6165158;23;20012;-91
2022/05/08 04:55:26;;;;;;;3.10;1.00;;;6.80;99.90;;;;;;6164997;23;20087;-90
2022/05/08 04:57:52;;;;;;;3.10;0.93;;;6.90;99.90;;;;;;6164718;23;20027;-91
2022/05/08 05:00:19;;;;;;;4.07;0.80;;;6.90;99.90;;;;;;6166887;23;20334;-92
2022/05/08 05:02:45;;;;;;;1.75;0.80;;;7.00;99.90;;;;;;6166728;23;20035;-91
2022/05/08 05:05:10;;;;;;;2.67;0.73;;;7.00;99.90;;;;;;6167026;23;20013;-90
2022/05/08 05:07:39;;;;;;;1.73;0.87;;;7.10;99.90;;;;;;6166822;23;20039;-91
2022/05/08 05:10:06;;;;;;;4.88;1.10;;;7.20;99.90;;;;;;6166889;23;20019;-91
2022/05/08 05:12:32;;;;;;;4.47;0.93;;;7.20;99.90;;;;;;6166677;23;20105;-92
2022/05/08 05:14:59;;;;;;;2.17;0.70;;;7.30;99.90;;;;;;6191568;23;20048;-92
2022/05/08 05:17:25;;;;;;;2.33;0.77;;;7.40;99.90;;;;;;6166437;23;20386;-92
2022/05/08 05:19:51;;;;;;;4.70;1.00;;;7.40;99.90;;;;;;6166572;23;20328;-90
2022/05/08 05:22:21;;;;;;;4.60;1.00;;;7.50;99.90;;;;;;6166706;23;20259;-90
2022/05/08 05:24:47;;;;;;;3.50;0.82;;;7.60;99.90;;;;;;6191168;23;20012;-92
2022/05/08 05:27:12;;;;;;;1.37;0.70;;;7.70;99.90;;;;;;6166333;23;20020;-91
2022/05/08 05:29:38;;;;;;;2.53;0.83;;;7.80;99.90;;;;;;6166748;23;20017;-91
2022/05/08 05:32:07;;;;;;;2.73;0.80;;;7.90;99.90;;;;;;6167192;23;20095;-91
2022/05/08 05:34:33;;;;;;;7.30;0.85;;;7.90;99.90;;;;;;6167340;23;20013;-90
2022/05/08 05:36:58;;;;;;;2.60;1.17;;;7.90;99.90;;;;;;6167436;23;20099;-91
2022/05/08 05:39:24;;;;;;;1.63;0.70;;;8.10;99.90;;;;;;6167019;23;20028;-91
2022/05/08 05:41:53;;;;;;;4.77;1.10;;;8.20;99.90;;;;;;6167380;23;20051;-90
2022/05/08 05:44:19;;;;;;;3.70;0.95;;;8.30;99.90;;;;;;6166854;23;20016;-90
2022/05/08 05:49:30;;;;;;;3.22;0.95;;;8.50;99.90;;;;;;6190870;23;20460;-90
2022/05/08 05:51:56;;;;;;;;;;;8.60;99.90;;;;;;6166740;23;20091;-92
2022/05/08 05:54:22;;;;;;;3.65;0.70;;;8.80;99.90;;;;;;6166162;23;19919;-93
2022/05/08 05:56:49;;;;;;;3.10;0.75;;;8.90;99.90;;;;;;6165919;23;20052;-90
2022/05/08 05:59:14;;;;;;;4.07;0.90;;;9.00;99.90;;;;;;6166056;23;20122;-90
2022/05/08 06:01:40;;;;;;;2.90;0.73;;;9.10;99.90;;;;;;6190718;23;20447;-91
2022/05/08 06:04:06;;;;;;;3.75;0.77;;;9.40;99.90;;;;;;6166232;23;20354;-91
2022/05/08 06:06:32;;;;;;;3.50;0.60;;;9.70;99.90;;;;;;6166304;23;20016;-92
2022/05/08 06:08:58;;;;;;;3.97;0.90;;;10.10;99.90;;;;;;6165756;23;20016;-92
2022/05/08 06:11:23;;;;;;;1.60;0.60;;;10.40;99.90;;;;;;6166347;23;20095;-91
2022/05/08 06:13:49;;;;;;;1.40;0.47;;;10.70;99.90;;;;;;6166186;23;20020;-92
2022/05/08 06:16:15;;;;;;;1.83;0.50;;;11.00;99.90;;;;;;6165972;23;20113;-89
2022/05/08 06:18:43;;;;;;;5.53;0.70;;;11.20;99.90;;;;;;6166156;23;20074;-91
2022/05/08 06:21:09;;;;;;;5.57;0.75;;;11.40;99.90;;;;;;6166373;23;20023;-92
2022/05/08 06:23:34;;;;;;;5.87;0.70;;;11.50;99.90;;;;;;6191490;23;20092;-93
2022/05/08 06:26:00;;;;;;;3.80;0.60;;;11.50;99.90;;;;;;6166275;23;20087;-91
2022/05/08 06:28:42;;;;;;;2.35;0.70;;;11.50;99.90;;;;;;6191528;23;20027;-91
2022/05/08 06:31:08;;;;;;;3.97;0.85;;;11.20;99.90;;;;;;6166248;23;20338;-91
2022/05/08 06:33:33;;;;;;;2.93;0.97;;;11.00;99.90;;;;;;6166225;23;20047;-92
2022/05/08 06:35:59;;;;;;;3.60;1.20;;;10.80;99.90;;;;;;6190902;23;20024;-92
2022/05/08 06:38:25;;;;;;;5.17;0.87;;;10.70;99.90;;;;;;6164345;23;20058;-91
2022/05/08 06:40:50;;;;;;;4.87;0.80;;;10.90;99.90;;;;;;6214999;23;20446;-92
2022/05/08 06:43:44;;;;;;;3.43;0.90;;;11.70;99.90;;;;;;6164629;23;20336;-91
2022/05/08 06:46:35;;;;;;;3.03;0.77;;;12.20;99.90;;;;;;6163341;23;20016;-91
2022/05/08 06:49:05;;;;;;;5.07;0.82;;;12.20;99.90;;;;;;6161914;23;20048;-90
2022/05/08 06:51:32;;;;;;;6.05;0.88;;;12.50;99.90;;;;;;6187925;23;20021;-88
2022/05/08 06:53:57;;;;;;;;;;;13.00;99.90;;;;;;6164566;23;20017;-89
2022/05/08 06:56:26;;;;;;;2.72;0.70;;;13.00;99.90;;;;;;6164159;23;20379;-89
2022/05/08 07:01:51;;;;;;;2.88;0.63;;;12.20;99.90;;;;;;6190599;23;20021;-90
2022/05/08 07:04:17;;;;;;;3.13;1.02;;;11.90;99.90;;;;;;6165929;23;20103;-91
2022/05/08 07:06:43;;;;;;;3.13;0.70;;;12.00;99.90;;;;;;6165974;23;20021;-94
2022/05/08 07:09:09;;;;;;;3.37;0.67;;;12.80;99.90;;;;;;6190605;23;20013;-92
2022/05/08 07:11:37;;;;;;;1.27;0.50;;;13.70;99.90;;;;;;6165691;23;20017;-91
2022/05/08 07:14:03;;;;;;;3.20;0.60;;;14.40;99.80;;;;;;6217217;23;20298;-93
2022/05/08 07:16:29;;;;;;;2.38;0.73;;;14.70;97.40;;;;;;6189346;23;20374;-95
2022/05/08 07:18:54;;;;;;;3.93;1.10;;;14.90;96.90;;;;;;6165739;23;20035;-94
2022/05/08 07:21:20;;;;;;;3.87;0.50;;;14.80;95.90;;;;;;6190223;23;20248;-93
2022/05/08 07:23:47;;;;;;;2.13;0.82;;;14.90;95.60;;;;;;6165870;23;20027;-95
2022/05/08 07:26:13;;;;;;;2.15;0.40;;;15.00;94.60;;;;;;6165865;23;20017;-92
2022/05/08 07:28:39;;;;;;;2.67;0.50;;;14.80;94.60;;;;;;6165836;23;20023;-91
2022/05/08 07:31:05;;;;;;;4.05;0.70;;;14.60;95.00;;;;;;6165883;23;20025;-90
2022/05/08 07:33:34;;;;;;;3.72;0.93;;;14.20;95.50;;;;;;6165251;23;20017;-93
2022/05/08 07:36:21;;;;;;;2.90;0.50;;;13.80;96.50;;;;;;6165465;23;20079;-93
2022/05/08 07:38:47;;;;;;;4.35;0.47;;;13.30;96.80;;;;;;6165127;23;20446;-90
2022/05/08 07:41:17;;;;;;;4.17;0.80;;;13.10;99.00;;;;;;6188942;23;20027;-89
2022/05/08 07:43:46;;;;;;;3.67;0.65;;;13.00;99.50;;;;;;6164736;23;20024;-90
2022/05/08 07:46:14;;;;;;;3.55;0.57;;;12.90;99.80;;;;;;6188875;23;20021;-90
2022/05/08 07:48:40;;;;;;;2.75;1.27;;;12.90;99.90;;;;;;6190671;23;20035;-92
2022/05/08 07:56:09;;;;;;;4.25;0.52;;;12.60;99.30;;;;;;6217395;23;20068;-93
2022/05/08 07:58:35;;;;;;;5.47;0.70;;;12.40;99.90;;;;;;6167129;23;20025;-93
2022/05/08 08:04:00;;;;;;;3.00;0.82;;;12.30;99.90;;;;;;6245302;22;20073;-91
2022/05/08 08:06:26;;;;;;;4.30;0.73;;;12.40;99.90;;;;;;6190744;23;20472;-96
2022/05/08 08:08:52;;;;;;;3.23;0.70;;;12.30;99.90;;;;;;6195057;23;20023;-92
2022/05/08 08:11:17;;;;;;;2.80;0.67;;;12.30;99.90;;;;;;6207476;23;20342;-92
2022/05/08 08:13:43;;;;;;;3.20;0.60;;;12.30;99.90;;;;;;6195248;23;20012;-94
2022/05/08 08:16:09;;;;;;;3.40;0.63;;;12.30;99.90;;;;;;6196961;23;20098;-91
2022/05/08 08:18:35;;;;;;;1.30;0.60;;;12.40;99.90;;;;;;6195755;23;20016;-93
2022/05/08 08:21:01;;;;;;;2.67;0.70;;;12.30;99.90;;;;;;6195233;23;20054;-90
2022/05/08 08:26:02;;;;;;;4.38;1.08;;;12.30;99.90;;;;;;6216854;23;20020;-93
2022/05/08 08:28:28;;;;;;;3.65;0.55;;;12.40;99.90;;;;;;6190495;23;20023;-90
2022/05/08 08:30:59;;;;;;;2.20;0.53;;;12.40;99.90;;;;;;6166410;23;20016;-92
2022/05/08 08:33:47;;;;;;;1.35;0.50;;;12.40;99.90;;;;;;6164876;23;20024;-90
2022/05/08 08:36:13;;;;;;;5.05;1.00;;;12.40;99.70;;;;;;6165118;23;20123;-90
2022/05/08 08:38:40;;;;;;;2.78;0.50;;;12.50;99.90;;;;;;6164781;23;20021;-90
2022/05/08 08:41:08;;;;;;;2.55;0.60;;;12.40;99.90;;;;;;6164882;23;20020;-90
2022/05/08 08:47:42;;;;;;;2.72;0.63;;;12.30;99.90;;;;;;6165062;23;20021;-90
2022/05/08 08:49:18;;;;;;;5.40;0.82;;;12.50;99.90;;;;;;6189509;23;20159;-94
2022/05/08 08:51:44;;;;;;;3.17;0.63;;;12.60;99.40;;;;;;6189916;23;20100;-91
2022/05/08 08:54:11;;;;;;;4.82;0.80;;;12.70;99.30;;;;;;6165281;23;20020;-91
2022/05/08 08:56:37;;;;;;;1.73;0.68;;;12.70;98.90;;;;;;6164805;23;20390;-91
2022/05/08 08:59:02;;;;;;;2.70;0.80;;;12.70;99.10;;;;;;6165089;23;20056;-89
2022/05/08 09:01:33;;;;;;;4.70;1.20;;;12.70;99.20;;;;;;6189825;23;20255;-92
2022/05/08 09:04:00;;;;;;;2.47;0.60;;;12.70;98.60;;;;;;6189818;23;20020;-91
2022/05/08 09:06:25;;;;;;;;;;;12.50;99.40;;;;;;6189977;23;20012;-90
2022/05/08 09:28:10;;;;;;;;;;;;;;;;;;;;;
2022/05/08 09:31:15;;;;;;;3.22;0.60;;;12.40;98.80;;;;;;6189644;23;20379;-91
2022/05/08 09:33:45;;;;;;;4.45;0.80;;;12.30;98.80;;;;;;6190221;23;20466;-91
2022/05/08 09:36:18;;;;;;;2.63;0.70;;;12.20;99.50;;;;;;6164165;23;20150;-91
2022/05/08 09:38:46;;;;;;;2.22;0.70;;;12.20;99.50;;;;;;6187891;23;20024;-88
2022/05/08 09:41:14;;;;;;;2.47;0.70;;;12.10;99.90;;;;;;6164356;23;20072;-88
2022/05/08 09:43:41;;;;;;;4.47;0.85;;;12.20;99.90;;;;;;6164599;23;20591;-92
2022/05/08 09:46:08;;;;;;;4.90;0.90;;;12.20;99.40;;;;;;6166199;23;20013;-91
2022/05/08 09:48:34;;;;;;;7.18;1.00;;;12.20;99.80;;;;;;6190688;23;20092;-90
2022/05/08 09:51:10;;;;;;;4.05;0.60;;;12.20;99.70;;;;;;6166185;23;20043;-90
2022/05/08 09:53:39;;;;;;;4.07;0.93;;;12.20;99.70;;;;;;6166863;23;20023;-89
2022/05/08 09:56:07;;;;;;;4.18;1.02;;;12.30;99.80;;;;;;6166945;23;20019;-93
2022/05/08 09:58:33;;;;;;;4.80;1.02;;;12.30;99.60;;;;;;6166970;23;20342;-91
2022/05/08 10:00:59;;;;;;;4.25;0.85;;;12.40;99.90;;;;;;6191318;23;20044;-93
2022/05/08 10:03:26;;;;;;;2.55;0.50;;;12.60;99.90;;;;;;6190366;23;20048;-92
2022/05/08 10:05:52;;;;;;;1.73;0.50;;;12.70;99.10;;;;;;6165805;23;20021;-90
2022/05/08 10:08:45;;;;;;;3.20;0.82;;;12.80;99.30;;;;;;6166230;23;20024;-88
2022/05/08 10:14:03;;;;;;;5.63;0.95;;;12.60;98.60;;;;;;6189054;23;20164;-90
2022/05/08 10:17:02;;;;;;;2.50;0.60;;;12.60;98.20;;;;;;6190749;23;20016;-90
2022/05/08 10:19:28;;;;;;;7.63;1.20;;;12.70;98.70;;;;;;6191064;23;20034;-90
2022/05/08 10:21:56;;;;;;;3.17;0.80;;;12.70;99.00;;;;;;6166013;23;20404;-90
2022/05/08 10:24:31;;;;;;;4.00;0.80;;;12.80;98.70;;;;;;6163709;23;20100;-90
2022/05/08 10:27:31;;;;;;;4.43;0.70;;;12.90;98.60;;;;;;6166030;23;20016;-90
2022/05/08 10:29:57;;;;;;;3.47;0.93;;;13.00;97.90;;;;;;6190355;23;20457;-92
2022/05/08 10:32:31;;;;;;;3.97;0.80;;;13.10;98.20;;;;;;6190120;23;20017;-91
2022/05/08 10:35:10;;;;;;;5.03;0.80;;;13.30;98.10;;;;;;6163411;23;20020;-91
2022/05/08 10:37:37;;;;;;;3.20;0.75;;;13.40;97.90;;;;;;6189223;23;20418;-89
2022/05/08 10:40:23;;;;;;;3.53;0.60;;;13.50;97.70;;;;;;6165586;23;20019;-90
2022/05/08 10:42:54;;;;;;;3.22;0.80;;;13.60;96.90;;;;;;6190127;23;20020;-89
2022/05/08 10:45:37;;;;;;;6.00;0.80;;;13.70;96.80;;;;;;6165621;23;20024;-92
2022/05/08 10:48:19;;;;;;;4.40;0.60;;;13.80;96.70;;;;;;6190750;23;20027;-91
2022/05/08 10:50:48;;;;;;;2.33;0.60;;;13.80;95.80;;;;;;6165822;23;20013;-90
2022/05/08 10:53:31;;;;;;;5.22;0.85;;;13.90;95.70;;;;;;6190648;23;20008;-89
2022/05/08 10:56:05;;;;;;;2.40;0.50;;;14.00;95.70;;;;;;6190227;23;20070;-91
2022/05/08 10:58:32;;;;;;;2.38;0.50;;;14.10;93.90;;;;;;6189981;23;20017;-91
2022/05/08 11:01:00;;;;;;;2.35;1.05;;;14.10;94.90;;;;;;6164199;23;20043;-93
2022/05/08 11:03:28;;;;;;;6.57;0.90;;;14.20;94.40;;;;;;6217853;23;20410;-88
2022/05/08 11:05:55;;;;;;;3.70;1.00;;;14.40;94.50;;;;;;6191372;23;20017;-91
2022/05/08 11:08:28;;;;;;;1.85;0.50;;;14.40;93.80;;;;;;6160655;23;20099;-89
2022/05/08 11:11:02;;;;;;;4.95;1.10;;;14.50;93.80;;;;;;6191623;23;20052;-89
2022/05/08 11:13:43;;;;;;;2.40;0.60;;;14.60;94.10;;;;;;6165290;23;20039;-89
2022/05/08 11:18:37;;;;;;;5.25;0.88;;;14.80;93.20;;;;;;6228689;22;20262;-90
2022/05/08 11:21:08;;;;;;;2.47;0.80;;;14.90;93.40;;;;;;6194274;23;20020;-93
2022/05/08 11:23:44;;;;;;;5.10;0.57;;;15.00;93.10;;;;;;6195577;23;20009;-93
2022/05/08 11:26:11;;;;;;;6.20;1.03;;;15.10;92.50;;;;;;6195981;23;20016;-94
2022/05/08 11:28:49;;;;;;;2.30;0.52;;;15.10;92.50;;;;;;6221269;23;20008;-93
2022/05/08 11:31:18;;;;;;;2.88;1.25;;;15.10;91.80;;;;;;6196361;23;20062;-91
2022/05/08 11:36:59;;;;;;;1.90;0.60;;;15.30;91.60;;;;;;6220571;23;20047;-94
2022/05/08 11:39:25;;;;;;;3.15;0.70;;;15.30;91.20;;;;;;6220543;23;20016;-91
2022/05/08 11:41:51;;;;;;;3.60;0.63;;;15.40;91.10;;;;;;6220507;23;20022;-94
2022/05/08 11:44:29;;;;;;;2.72;0.45;;;15.40;90.90;;;;;;6195077;23;20468;-92
2022/05/08 11:46:58;;;;;;;1.65;0.52;;;15.50;89.40;;;;;;6195569;23;20024;-92
2022/05/08 11:49:29;;;;;;;3.67;0.70;;;15.40;90.00;;;;;;6194452;23;20023;-90
2022/05/08 11:51:56;;;;;;;2.88;0.70;;;15.50;90.10;;;;;;6195229;23;20016;-91
2022/05/08 11:54:37;;;;;;;3.90;0.80;;;15.60;90.00;;;;;;6195168;23;20063;-90
2022/05/08 11:59:40;;;;;;;2.33;0.73;;;15.60;88.10;;;;;;6216217;23;20028;-89
2022/05/08 12:02:05;;;;;;;3.67;0.70;;;15.60;88.10;;;;;;6189982;23;20020;-93
2022/05/08 12:04:33;;;;;;;2.63;0.82;;;15.60;88.10;;;;;;6215161;23;20020;-95
2022/05/08 12:07:00;;;;;;;2.45;0.60;;;15.70;87.30;;;;;;6164769;23;20020;-90
2022/05/08 12:09:49;;;;;;;3.63;0.93;;;15.70;86.70;;;;;;6165188;23;20330;-93
2022/05/08 12:12:27;;;;;;;2.88;0.60;;;15.70;82.10;;;;;;6176379;23;20016;-94
2022/05/08 12:14:55;;;;;;;3.03;0.88;;;15.70;85.20;;;;;;6189832;23;20017;-93
2022/05/08 12:17:20;;;;;;;3.90;0.90;;;15.70;85.70;;;;;;6164721;23;20017;-92
2022/05/08 12:19:57;;;;;;;2.80;0.50;;;15.70;85.50;;;;;;6215057;23;20038;-92
2022/05/08 12:22:26;;;;;;;1.58;0.60;;;15.70;84.20;;;;;;6189653;23;20107;-91
2022/05/08 12:24:52;;;;;;;5.65;0.88;;;15.80;83.00;;;;;;6189729;23;20040;-91
2022/05/08 12:27:19;;;;;;;2.10;0.68;;;15.80;82.30;;;;;;6189528;23;20017;-92
2022/05/08 12:29:48;;;;;;;4.10;0.55;;;15.80;83.30;;;;;;6189917;23;20422;-95
2022/05/08 12:32:15;;;;;;;2.83;0.50;;;15.80;83.00;;;;;;6190113;23;20016;-91
2022/05/08 12:34:41;;;;;;;4.55;0.57;;;16.00;82.70;;;;;;6189167;23;20055;-89
2022/05/08 12:37:11;;;;;;;3.90;0.82;;;15.90;82.60;;;;;;6189281;23;20020;-91
2022/05/08 12:39:41;;;;;;;4.05;0.70;;;16.00;82.80;;;;;;6164217;23;20099;-91
2022/05/08 12:42:08;;;;;;;3.22;0.68;;;16.10;83.60;;;;;;6189137;23;20044;-91
2022/05/08 12:44:34;;;;;;;2.42;0.52;;;16.10;82.60;;;;;;6164485;23;20017;-91
2022/05/08 12:47:01;;;;;;;4.18;0.88;;;16.10;81.40;;;;;;6189196;23;20017;-90
2022/05/08 12:49:26;;;;;;;;;;;16.10;79.10;;;;;;6165104;23;20027;-89
2022/05/08 12:51:52;;;;;;;2.28;0.63;;;16.00;78.90;;;;;;6214214;23;20436;-92
2022/05/08 12:54:18;;;;;;;2.17;0.60;;;16.00;77.90;;;;;;6214251;23;20415;-91
2022/05/08 12:56:45;;;;;;;1.45;0.43;;;16.00;78.50;;;;;;6189081;23;20021;-89
2022/05/08 13:01:54;;;;;;;6.45;1.20;;;16.00;79.40;;;;;;6188398;23;20020;-92
2022/05/08 13:04:21;;;;;;;4.32;0.90;;;15.90;79.20;;;;;;6189249;23;20096;-92
2022/05/08 13:06:47;;;;;;;2.58;0.60;;;15.90;79.00;;;;;;6214565;23;20017;-89
2022/05/08 13:09:13;;;;;;;6.72;0.90;;;15.80;79.20;;;;;;6189637;23;20013;-92
2022/05/08 13:11:39;;;;;;;2.75;0.60;;;15.70;79.10;;;;;;6189472;23;20523;-92
2022/05/08 13:14:05;;;;;;;1.73;0.70;;;15.70;79.50;;;;;;6189395;23;20024;-92
2022/05/08 13:16:32;;;;;;;4.38;0.85;;;15.70;78.70;;;;;;6189985;23;20016;-93
2022/05/08 13:18:57;;;;;;;2.58;0.52;;;15.70;77.60;;;;;;6164597;23;20021;-92
2022/05/08 13:21:25;;;;;;;3.40;1.00;;;15.70;79.20;;;;;;6166527;23;20047;-92
2022/05/08 13:23:51;;;;;;;3.47;0.60;;;15.70;80.10;;;;;;6191201;23;20021;-93
2022/05/08 13:26:16;;;;;;;6.15;0.90;;;15.80;80.50;;;;;;6168151;23;20020;-93
2022/05/08 13:28:43;;;;;;;4.30;0.90;;;15.80;79.80;;;;;;6192251;23;20442;-94
2022/05/08 13:31:09;;;;;;;2.47;0.77;;;15.70;80.30;;;;;;6166921;23;20017;-92
2022/05/08 13:33:35;;;;;;;1.40;0.50;;;15.70;81.00;;;;;;6192015;23;21605;-94
2022/05/08 13:36:02;;;;;;;2.85;0.65;;;15.70;81.50;;;;;;6217762;23;20036;-93
2022/05/08 13:38:27;;;;;;;6.03;0.90;;;15.80;80.90;;;;;;6192046;23;20347;-94
2022/05/08 13:40:59;;;;;;;6.07;1.17;;;15.80;81.60;;;;;;6191677;23;20016;-92
2022/05/08 13:43:25;;;;;;;4.20;0.60;;;15.80;82.00;;;;;;6166710;23;20021;-92
2022/05/08 13:45:52;;;;;;;4.18;0.80;;;15.80;81.40;;;;;;6191547;23;20059;-91
2022/05/08 13:48:19;;;;;;;4.75;0.82;;;15.70;82.10;;;;;;6192519;23;20013;-90
2022/05/08 13:50:47;;;;;;;2.90;0.90;;;15.70;82.20;;;;;;6166442;23;20012;-91
2022/05/08 13:53:13;;;;;;;2.97;1.10;;;15.60;82.00;;;;;;6192232;23;20454;-91
2022/05/08 13:55:39;;;;;;;4.63;1.00;;;15.60;82.40;;;;;;6216658;23;20012;-91
2022/05/08 13:58:10;;;;;;;3.05;0.70;;;15.60;82.90;;;;;;6165822;23;20016;-91
2022/05/08 14:00:37;;;;;;;2.85;0.50;;;15.60;83.00;;;;;;6190375;23;20029;-90
2022/05/08 14:03:32;;;;;;;5.30;0.93;;;15.60;82.60;;;;;;6165758;23;20442;-91
2022/05/08 14:05:59;;;;;;;3.13;0.80;;;15.60;83.00;;;;;;6165828;23;20020;-92
2022/05/08 14:08:25;;;;;;;3.20;0.52;;;15.70;83.20;;;;;;6166142;23;20017;-91
2022/05/08 14:10:52;;;;;;;2.28;0.65;;;15.70;82.30;;;;;;6191537;23;20458;-92
2022/05/08 14:13:17;;;;;;;4.07;0.70;;;15.60;81.60;;;;;;6165683;23;20072;-91
2022/05/08 14:15:43;;;;;;;1.70;0.50;;;15.50;82.30;;;;;;6191019;23;20020;-92